Оренбург

Карта отелей и гостиниц, располагающихся рядом с аэропортом Оренбург :

Оренбург Оренбургская область 51° 47' 44.9988" N, 55° 27' 24.0012" E
Код аэродрома ИКАО
UWOO
Код аэродрома RU
УВОО
Координаты
N51.79583° E055.45667°
Превышение над уровнем моря
118
Основная полоса
08L/26R
Курс магнитный
078,7/258,7
Длина основной ВПП
2508
Ширина основной ВПП
60
Покрытие основной ВПП
Нетвёрдое (грунт)
Освещение ВПП
Нет
Тип: 
Аэродром
Класс аэродрома: 
Международный
Принадлежность: 
ГА
Статус: 
Действующий
Сайт: 
http://www.orenairport.ru/
E-mail аэродрома: 
info@orenairport.ru
Страна: 
Россия
Регион: 
Оренбургская область
Дополнительная информация: 
Оператор: ГУП Оренбургской области "Международный аэропорт "Оренбург". Нкр.=(600)м. Военный индекс: XWOO/ЬВОО.
Погода: 

Авиационная погода в Оренбурге

Регион: 
Погода METAR: 
UWOO 171530Z 31004MPS 9999 OVC033CB 09/02 Q1015 R26/65D NOSIG RMK QFE750/1001
Время наблюдения
2021-09-17T15:30:00Z
Температура C
9.0
Точка росы
2.0
Направление ветра
310
Скорость ветра (узлы)
8
Метео видимость
6.21
Явления погоды
Условия полета
VFR
Аэропорт подробнее: 

Найти трансфер

С помощью этой формы Вы можете найти трансфер из аэропорта Оренбург в город, аэропорт или вокзал:

Карта места

Javascript is required to view this map.

Погода в аэропортах:

Авиационная погода в Перми

Регион: 
Погода METAR: 
USPP 171530Z 30002MPS 9999 -RA BKN038 06/06 Q1009 R21/290150 TEMPO 3000 -RA BKN005 RMK QFE746
Время наблюдения
2021-09-17T15:30:00Z
Температура C
6.0
Точка росы
6.0
Направление ветра
300
Скорость ветра (узлы)
4
Метео видимость
6.21
Явления погоды
-RA
Условия полета
VFR
Аэропорт подробнее: 

Авиационная погода в Толмачево

Регион: 
Погода METAR: 
UNNT 171530Z 28004MPS 9999 -SHRA BKN060CB 17/09 Q0997 R25/290160 R34/////// NOSIG RMK QFE738/0984
Время наблюдения
2021-09-17T15:30:00Z
Температура C
17.0
Точка росы
9.0
Направление ветра
280
Скорость ветра (узлы)
8
Метео видимость
6.21
Явления погоды
-SHRA
Условия полета
VFR
Аэропорт подробнее: 

Авиационная погода в Закаталы

Регион: 
Погода METAR: 
UBBY 171600Z 09008KT 9999 VCTS SCT035CB OVC080 20/17 Q1017 R33/////// NOSIG RMK MT OBSC
Время наблюдения
2021-09-17T16:00:00Z
Температура C
20.0
Точка росы
17.0
Направление ветра
90
Скорость ветра (узлы)
8
Метео видимость
6.21
Явления погоды
VCTS
Условия полета
VFR

Авиационная погода в Курске

Погода METAR: 
UUOK 171530Z 08004MPS 9999 -RA NSC 10/08 Q1015 R12/290050 NOSIG RMK QFE743/0991
Время наблюдения
2021-09-17T15:30:00Z
Температура C
10.0
Точка росы
8.0
Направление ветра
80
Скорость ветра (узлы)
8
Метео видимость
6.21
Явления погоды
-RA
Условия полета
VFR
Аэропорт подробнее: